Pagrindinis puslapis
METAR-TAF:

METAR-TAF

Oro uostai :

Lima, Peru

platuma: 12-00S, ilguma: 077-07W, Aukštis: 12 m

Dabartinis oras

Ataskaita buvo paskelbta 42 minutes, ne 01:00 UTC
Vėjas 10 kt iš Pietų
Temperatūra 25°C
Drėgmė 79%
Slėgis 1012 hPa
Matomumas 10 km arba daugiau
nėra debesų žemiau 1500 m ir nėra kamuolinių lietaus debesų

METAR: SPJC 240100Z 17010KT CAVOK 25/21 Q1012 NOSIG RMK PP000

Laikas: 20:42 (01:42 UTC)

Prognozė

Ataskaita buvo paskelbta 2 valandos ir 42 minutes, ne 23:00 UTC
Prognozė galioja nuo 24 metu 00 UTC su 24 metu 24 UTC
Vėjas 10 kt iš Pietų
Matomumas 10 km arba daugiau
Su prošvaistėmis ne aukštis 8000 ft
Nuo 24 metu 1400 UTC
Vėjas 5 kt iš Pietų/Pietvakarių
Matomumas 10 km arba daugiau
Su prošvaistėmis ne aukštis 13000 ft
Nuo 24 metu 1800 UTC
Vėjas 10 kt iš Pietų
Matomumas 10 km arba daugiau
nėra debesų žemiau 1500 m ir nėra kamuolinių lietaus debesų

TAF: SPJC 232300Z 2400/2424 17010KT 9999 BKN080 TX29/2419Z TN22/2411Z FM241400 21005KT 9999 BKN130 FM241800 18010KT CAVOK

Orai ataskaitas ir orų prognozės (METAR, TAF).

turimą stotys yra geltonos ir raudonos taškus žemėlapyje.

Perkelti pele per norėdami pamatyti stoties vardą.

Tada spustelėkite, norėdami matyti oro stebėjimo ir prognozės.

Norėdami pakeisti žemėlapį: spustelėkite ant žalios mygtukų su juodo kryžiaus žemyn,; žalią mygtuką su brūkšneliu, jei norite nutolinti; arba žalių rodyklių gretimoms žemėlapius.


METAR-TAF: